Delhi, Iowa
Current Conditions -  °F | °C
As of 7:15 AM on Thursday 30 Oct 2014 (Local Time) from KMXO Reporting Station
Overcast Overcast  
Wind Chill: 34°   Ceiling: 9500
Heat Index: 34°   Visibility: 10mi
Dew Point: 34°   Wind: 0mph
Humidity: 100%   Direction: NA
Pressure: 30.09"   Gusts: NA
Location:  42.43°N, 91.33°W
Report Text: KMXO 301215Z AUTO 00000KT 10SM BKN095 OVC110 01/01 A3009 RMK AO2
Loading
Personal Weather Stations






























Interactive Weather Map New forecast layout! Learn more

10-Day Weather Forecast

Advertisements
Track Severe Weather on mobile